Main page
METAR-TAF:

METAR-TAF

Airports :

Sandefjord Airport. Torp

Sandefjord, Norway

latitude: 59-12N, longitude: 010-16E, elevation: 8 m

Current weather observation

The report was made 15 minutes ago, at 03:20 UTC
Wind 13 kt from the Southwest
Temperature 6°C
Humidity 100%
Pressure 1013 hPa
Visibility: 6000 m

METAR: ENTO 230320Z AUTO 22013KT 6000 OVC004/// 06/06 Q1013

Time: 04:35 (03:35 UTC)

Forecast

The report was made 15 minutes ago, at 03:20 UTC
Forecast valid from 23 at 03 UTC to 23 at 24 UTC
Wind 12 kt from the West/Southwest
Visibility 10 km or more
Overcast at a height of 400 ft
Becoming
from 23 at 04 UTC to 23 at 06 UTC
Few clouds at a height of 4000 ft
Temporary
from 23 at 09 UTC to 23 at 18 UTC
Wind 18 kt from the West with gusts up to 30 kt

TAF: ENTO 230320Z 2303/2324 25012KT 9999 OVC004 BECMG 2304/2306 FEW040 TEMPO 2309/2318 26018G30KT

Weather observations and forecasts of more than 4000 airports (METAR and TAF reports).

The available stations are represented by yellow and red dots on the map.

Hover mouse over dot to see the name of the station.

Then click to see weather observations and forecasts.

To change the map : click on the green buttons with a black cross to zoom in, on the green button with a dash to zoom out, or on the green arrows for adjacent maps.


METAR-TAF: